Terminal Aerodrome Forecast
Issued by NWS Sioux Falls, SD

Home | Current Version | Previous Version | Graphics & Text | Print | Product List | Glossary Off
Versions: 1 2 3 4 5 6 7 8 9 10 11 12 13 14 15 16 17 18 19

000
FTUS43 KFSD 142333
TAFSUX
TAF
KSUX 142333Z 1500/1524 20009KT P6SM OVC010
      TEMPO 1500/1502 P6SM OVC008
     FM150400 26008KT P6SM OVC035
     FM150500 29010KT P6SM BKN150
     FM150600 31012KT P6SM BKN030
     FM150700 31013G19KT P6SM SCT200=

USA.gov is the U.S. government's official web portal to all federal, state and local government web resources and services.